Time;durP1;ratioP1;P1;durP2;ratioP2;P2;SDS_P1;SDS_P2;PMS_P1;PMS_P2;Temp;Humidity;BMP_temperature;BMP_pressure;BME280_temperature;BME280_humidity;BME280_pressure;Samples;Min_cycle;Max_cycle;Signal;HPM_P1;HPM_P2
2022/07/02 00:00:02;;;;;;;6.70;2.97;;;13.40;99.90;;;;;;5012253;28;20212;-59
2022/07/02 00:02:32;;;;;;;6.13;2.60;;;13.40;99.90;;;;;;5011693;28;20206;-61
2022/07/02 00:05:01;;;;;;;2.87;2.37;;;13.30;99.90;;;;;;5012143;28;20207;-59
2022/07/02 00:07:28;;;;;;;3.57;2.47;;;13.40;99.90;;;;;;5011671;28;20230;-61
2022/07/02 00:09:56;;;;;;;5.40;2.83;;;13.40;99.90;;;;;;5011996;28;20239;-61
2022/07/02 00:12:25;;;;;;;3.70;2.20;;;13.40;99.90;;;;;;5011852;28;20206;-60
2022/07/02 00:14:53;;;;;;;5.13;2.63;;;13.40;99.90;;;;;;5011986;28;20262;-62
2022/07/02 00:17:20;;;;;;;4.23;2.37;;;13.30;99.90;;;;;;5011018;28;20685;-62
2022/07/02 00:19:47;;;;;;;6.37;3.10;;;13.30;99.90;;;;;;5012353;28;20240;-61
2022/07/02 00:22:15;;;;;;;7.80;3.80;;;13.30;99.90;;;;;;5011929;28;20216;-59
2022/07/02 00:24:42;;;;;;;4.73;3.67;;;13.30;99.90;;;;;;5012077;28;20637;-60
2022/07/02 00:27:10;;;;;;;6.87;2.40;;;13.20;99.90;;;;;;5011672;28;20245;-61
2022/07/02 00:29:43;;;;;;;4.63;3.03;;;13.20;99.90;;;;;;5012035;28;20587;-61
2022/07/02 00:32:10;;;;;;;3.57;2.63;;;13.20;99.90;;;;;;5012224;28;20202;-62
2022/07/02 00:34:38;;;;;;;4.20;2.70;;;13.20;99.90;;;;;;5015350;28;20216;-61
2022/07/02 00:37:06;;;;;;;7.57;3.13;;;13.10;99.90;;;;;;5015421;28;20227;-60
2022/07/02 00:39:33;;;;;;;3.93;2.37;;;13.10;99.90;;;;;;5015510;28;20203;-61
2022/07/02 00:42:00;;;;;;;7.80;3.00;;;13.10;99.90;;;;;;5015688;28;20670;-62
2022/07/02 00:44:27;;;;;;;3.17;2.40;;;13.10;99.90;;;;;;5015481;28;20212;-57
2022/07/02 00:46:56;;;;;;;5.83;2.97;;;13.10;99.90;;;;;;5015147;28;20234;-59
2022/07/02 00:49:23;;;;;;;3.87;2.40;;;13.10;99.90;;;;;;5015540;28;20241;-62
2022/07/02 00:51:50;;;;;;;4.60;2.77;;;13.10;99.90;;;;;;5015466;28;20211;-58
2022/07/02 00:54:17;;;;;;;4.23;2.73;;;13.10;99.90;;;;;;5015165;28;20647;-61
2022/07/02 00:56:43;;;;;;;5.77;2.70;;;13.10;99.90;;;;;;5014982;28;20236;-62
2022/07/02 00:59:10;;;;;;;4.97;3.07;;;13.10;99.90;;;;;;5015768;28;20200;-60
2022/07/02 01:01:37;;;;;;;5.83;2.63;;;13.00;99.90;;;;;;5015494;28;20216;-61
2022/07/02 01:04:07;;;;;;;4.10;2.53;;;13.10;99.90;;;;;;5015478;28;20213;-59
2022/07/02 01:06:34;;;;;;;4.63;2.93;;;13.10;99.90;;;;;;5014478;28;20286;-58
2022/07/02 01:11:47;;;;;;;4.33;2.83;;;13.10;99.90;;;;;;5014840;28;20243;-61
2022/07/02 01:14:15;;;;;;;4.67;2.90;;;13.10;99.90;;;;;;5015214;28;20679;-60
2022/07/02 01:16:42;;;;;;;6.80;3.03;;;13.10;99.90;;;;;;5014429;28;20224;-59
2022/07/02 01:19:11;;;;;;;4.53;3.00;;;13.10;99.90;;;;;;5015088;28;20263;-59
2022/07/02 01:21:38;;;;;;;5.43;2.77;;;13.10;99.90;;;;;;5014447;28;20265;-58
2022/07/02 01:24:07;;;;;;;3.17;2.77;;;13.10;99.90;;;;;;5014935;28;20258;-60
2022/07/02 01:26:33;;;;;;;5.00;3.20;;;13.10;99.90;;;;;;5014183;28;20249;-62
2022/07/02 01:29:00;;;;;;;6.70;3.07;;;13.10;99.90;;;;;;5014442;28;20274;-59
2022/07/02 01:31:29;;;;;;;4.57;2.83;;;13.10;99.90;;;;;;5014368;28;20204;-58
2022/07/02 01:33:55;;;;;;;7.40;2.97;;;13.10;99.90;;;;;;5014467;28;20210;-60
2022/07/02 01:36:22;;;;;;;5.63;2.80;;;13.10;99.90;;;;;;5014332;28;20207;-60
2022/07/02 01:38:52;;;;;;;6.30;3.47;;;13.10;99.90;;;;;;5014373;28;20259;-54
2022/07/02 01:44:04;;;;;;;4.10;2.57;;;13.10;99.90;;;;;;5013499;28;20214;-61
2022/07/02 01:46:31;;;;;;;4.23;2.80;;;13.10;99.90;;;;;;5013352;28;20625;-60
2022/07/02 01:48:57;;;;;;;4.30;2.90;;;13.10;99.90;;;;;;5013921;28;20744;-61
2022/07/02 01:51:24;;;;;;;4.00;2.57;;;13.10;99.90;;;;;;5014286;28;20261;-62
2022/07/02 01:53:51;;;;;;;6.83;3.03;;;13.10;99.90;;;;;;5013701;28;20733;-62
2022/07/02 01:56:17;;;;;;;6.67;3.00;;;13.10;99.90;;;;;;5013857;28;20268;-60
2022/07/02 01:58:46;;;;;;;6.63;2.87;;;13.10;99.90;;;;;;5013766;28;20759;-62
2022/07/02 02:01:13;;;;;;;4.40;2.80;;;13.10;99.90;;;;;;5013894;28;20235;-62
2022/07/02 02:03:39;;;;;;;5.77;3.13;;;13.10;99.90;;;;;;5013973;28;20265;-60
2022/07/02 02:06:06;;;;;;;6.83;2.53;;;13.10;99.90;;;;;;5013653;28;20215;-60
2022/07/02 02:08:33;;;;;;;4.73;2.77;;;13.10;99.90;;;;;;5013727;28;20237;-62
2022/07/02 02:10:59;;;;;;;5.03;2.70;;;13.10;99.90;;;;;;5013774;28;20230;-61
2022/07/02 02:13:26;;;;;;;5.50;2.70;;;13.10;99.90;;;;;;5013754;28;20207;-60
2022/07/02 02:15:55;;;;;;;4.90;2.83;;;13.10;99.90;;;;;;5013015;28;20269;-63
2022/07/02 02:18:22;;;;;;;3.77;2.87;;;13.10;99.90;;;;;;5013607;28;20232;-61
2022/07/02 02:20:48;;;;;;;6.67;2.70;;;13.10;99.90;;;;;;5013184;28;20211;-64
2022/07/02 02:23:15;;;;;;;3.73;2.67;;;13.00;99.90;;;;;;5013490;28;20253;-62
2022/07/02 02:25:42;;;;;;;3.57;2.60;;;13.00;99.90;;;;;;5013437;28;20210;-60
2022/07/02 02:28:09;;;;;;;4.87;3.10;;;13.00;99.90;;;;;;5013054;28;20312;-62
2022/07/02 02:30:35;;;;;;;3.27;2.90;;;13.00;99.90;;;;;;5013134;28;20772;-63
2022/07/02 02:33:03;;;;;;;4.30;2.63;;;13.00;99.90;;;;;;5013477;28;20724;-63
2022/07/02 02:35:30;;;;;;;5.10;2.97;;;13.00;99.90;;;;;;5013366;28;20208;-63
2022/07/02 02:37:57;;;;;;;4.67;2.57;;;13.00;99.90;;;;;;5012992;28;20718;-62
2022/07/02 02:40:23;;;;;;;4.83;3.00;;;13.00;99.90;;;;;;5013198;28;20199;-62
2022/07/02 02:42:50;;;;;;;3.40;2.70;;;13.00;99.90;;;;;;5013070;28;20211;-62
2022/07/02 02:45:17;;;;;;;4.70;3.00;;;12.90;99.90;;;;;;5013497;28;20631;-61
2022/07/02 02:47:43;;;;;;;5.80;2.93;;;12.90;99.90;;;;;;5012846;28;20230;-63
2022/07/02 02:50:11;;;;;;;5.80;3.10;;;12.90;99.90;;;;;;5013418;28;20277;-63
2022/07/02 02:52:38;;;;;;;3.47;3.13;;;12.80;99.90;;;;;;5012995;28;20261;-63
2022/07/02 02:55:06;;;;;;;4.97;2.97;;;12.80;99.90;;;;;;5013155;28;20206;-63
2022/07/02 02:57:32;;;;;;;4.53;2.80;;;12.80;99.90;;;;;;5012155;28;20344;-62
2022/07/02 02:59:59;;;;;;;4.90;2.70;;;12.70;99.90;;;;;;5013177;28;20207;-62
2022/07/02 03:02:26;;;;;;;4.17;2.47;;;12.70;99.90;;;;;;5012818;28;20207;-63
2022/07/02 03:04:52;;;;;;;5.97;3.27;;;12.60;99.90;;;;;;5012985;28;20207;-63
2022/07/02 03:07:21;;;;;;;6.00;3.07;;;12.60;99.90;;;;;;5012312;28;20234;-63
2022/07/02 03:09:47;;;;;;;5.80;3.30;;;12.60;99.90;;;;;;5012677;28;20269;-63
2022/07/02 03:12:14;;;;;;;5.90;3.30;;;12.60;99.90;;;;;;5013027;28;20215;-63
2022/07/02 03:14:40;;;;;;;5.97;3.57;;;12.60;99.90;;;;;;5012455;28;20620;-63
2022/07/02 03:17:07;;;;;;;5.27;3.40;;;12.60;99.90;;;;;;5012414;28;20285;-58
2022/07/02 03:19:34;;;;;;;6.27;3.07;;;12.50;99.90;;;;;;5012562;28;20281;-62
2022/07/02 03:22:01;;;;;;;5.50;3.20;;;12.50;99.90;;;;;;5012692;28;20289;-60
2022/07/02 03:24:29;;;;;;;3.77;2.50;;;12.50;99.90;;;;;;5012211;28;20210;-60
2022/07/02 03:26:56;;;;;;;3.90;2.87;;;12.50;99.90;;;;;;5012134;28;20281;-59
2022/07/02 03:29:22;;;;;;;5.10;2.83;;;12.50;99.90;;;;;;5012511;28;20261;-63
2022/07/02 03:31:49;;;;;;;3.93;2.47;;;12.60;99.90;;;;;;5012428;28;20218;-61
2022/07/02 03:34:16;;;;;;;5.33;2.80;;;12.60;99.90;;;;;;5012386;28;20203;-63
2022/07/02 03:36:42;;;;;;;7.90;3.03;;;12.60;99.90;;;;;;5012007;28;20231;-63
2022/07/02 03:39:09;;;;;;;5.33;2.80;;;12.60;99.90;;;;;;5012098;28;20318;-62
2022/07/02 03:41:37;;;;;;;7.47;3.00;;;12.70;99.90;;;;;;5012532;28;20258;-60
2022/07/02 03:44:04;;;;;;;5.43;3.30;;;12.60;99.90;;;;;;5012341;28;20207;-62
2022/07/02 03:46:31;;;;;;;6.47;3.00;;;12.70;99.90;;;;;;5011955;28;20269;-63
2022/07/02 03:48:57;;;;;;;3.80;2.47;;;12.70;99.90;;;;;;5011544;28;20562;-63
2022/07/02 03:51:24;;;;;;;4.33;2.37;;;12.70;99.90;;;;;;5011344;28;20232;-63
2022/07/02 03:53:51;;;;;;;5.30;2.10;;;12.80;99.90;;;;;;5012055;28;20214;-63
2022/07/02 03:56:17;;;;;;;4.93;2.97;;;12.80;99.90;;;;;;5011439;28;20341;-63
2022/07/02 03:58:45;;;;;;;6.40;2.70;;;12.90;99.90;;;;;;5011877;28;20219;-61
2022/07/02 04:01:12;;;;;;;3.83;2.20;;;12.90;99.90;;;;;;5011891;28;20208;-63
2022/07/02 04:03:39;;;;;;;3.83;2.43;;;13.00;99.90;;;;;;5011928;28;20203;-60
2022/07/02 04:06:05;;;;;;;3.40;2.50;;;13.00;99.90;;;;;;5011277;28;20207;-59
2022/07/02 04:08:32;;;;;;;4.07;2.33;;;13.00;99.90;;;;;;5014146;28;20231;-55
2022/07/02 04:10:59;;;;;;;4.47;2.40;;;13.10;99.90;;;;;;5016053;28;20286;-59
2022/07/02 04:13:26;;;;;;;3.80;2.60;;;13.10;99.90;;;;;;5016106;28;20216;-60
2022/07/02 04:15:54;;;;;;;10.33;2.70;;;13.20;99.90;;;;;;5015912;28;20215;-62
2022/07/02 04:18:21;;;;;;;6.17;2.63;;;13.30;99.90;;;;;;5015849;28;20227;-63
2022/07/02 04:20:48;;;;;;;3.13;2.17;;;13.30;99.90;;;;;;5015742;28;20202;-62
2022/07/02 04:23:14;;;;;;;3.47;2.00;;;13.40;99.90;;;;;;5015997;28;20632;-56
2022/07/02 04:25:41;;;;;;;3.83;2.20;;;13.50;99.90;;;;;;5015458;28;20268;-59
2022/07/02 04:28:09;;;;;;;4.27;2.30;;;13.50;99.90;;;;;;5014255;28;20239;-61
2022/07/02 04:30:35;;;;;;;5.23;2.23;;;13.50;99.90;;;;;;5016461;28;20228;-58
2022/07/02 04:33:04;;;;;;;7.30;3.00;;;13.60;99.90;;;;;;5016547;28;20214;-63
2022/07/02 04:35:31;;;;;;;3.73;2.50;;;13.60;99.90;;;;;;5015914;28;20659;-63
2022/07/02 04:37:58;;;;;;;5.87;2.20;;;13.60;99.90;;;;;;5014975;28;20237;-63
2022/07/02 04:40:25;;;;;;;3.00;2.40;;;13.70;99.90;;;;;;5015653;28;20265;-60
2022/07/02 04:42:51;;;;;;;6.10;2.63;;;13.70;99.00;;;;;;5014919;28;20214;-61
2022/07/02 04:45:18;;;;;;;3.90;2.10;;;13.80;95.50;;;;;;5015528;28;20655;-62
2022/07/02 04:47:45;;;;;;;3.77;2.37;;;13.90;94.50;;;;;;5014845;28;20288;-60
2022/07/02 04:50:13;;;;;;;3.10;2.43;;;13.90;84.50;;;;;;5015462;28;20283;-60
2022/07/02 04:52:39;;;;;;;3.60;2.53;;;14.00;78.50;;;;;;5015306;28;20218;-61
2022/07/02 04:55:06;;;;;;;4.03;2.27;;;14.00;79.20;;;;;;5015686;28;20222;-62
2022/07/02 04:57:33;;;;;;;3.07;2.23;;;14.00;79.10;;;;;;5015756;28;20230;-58
2022/07/02 05:00:00;;;;;;;3.03;2.07;;;14.10;77.60;;;;;;5015119;28;20241;-60
2022/07/02 05:02:26;;;;;;;3.00;2.10;;;14.20;73.40;;;;;;5014946;28;20260;-63
2022/07/02 05:04:53;;;;;;;5.00;2.17;;;14.20;68.20;;;;;;5015088;28;20210;-60
2022/07/02 05:07:21;;;;;;;2.13;1.93;;;14.20;65.00;;;;;;5014727;28;20234;-61
2022/07/02 05:09:47;;;;;;;6.97;2.57;;;14.30;56.80;;;;;;5014667;28;20685;-62
2022/07/02 05:12:14;;;;;;;3.90;2.23;;;14.30;48.40;;;;;;5014944;28;20293;-62
2022/07/02 05:14:41;;;;;;;5.60;2.57;;;14.40;42.60;;;;;;5014792;28;20676;-63
2022/07/02 05:17:07;;;;;;;5.17;1.93;;;14.40;38.20;;;;;;5014227;28;20300;-63
2022/07/02 05:19:34;;;;;;;5.83;2.10;;;14.50;29.20;;;;;;5014390;28;20673;-62
2022/07/02 05:22:01;;;;;;;8.63;2.50;;;14.50;26.40;;;;;;5014887;28;20209;-61
2022/07/02 05:24:29;;;;;;;5.20;2.10;;;14.60;25.10;;;;;;5015013;28;20565;-61
2022/07/02 05:26:55;;;;;;;4.30;2.10;;;14.70;21.50;;;;;;5014047;28;20289;-58
2022/07/02 05:29:22;;;;;;;3.10;1.93;;;14.70;21.90;;;;;;5014420;28;20210;-61
2022/07/02 05:31:48;;;;;;;4.00;2.00;;;14.80;16.80;;;;;;5014392;28;20227;-60
2022/07/02 05:34:15;;;;;;;10.73;2.37;;;14.80;9.20;;;;;;5014809;28;20211;-62
2022/07/02 05:36:42;;;;;;;4.43;2.23;;;14.90;2.40;;;;;;5013961;28;20915;-62
2022/07/02 05:39:08;;;;;;;3.87;2.23;;;14.90;1.00;;;;;;5014488;28;20265;-60
2022/07/02 05:41:36;;;;;;;6.23;2.30;;;14.90;1.00;;;;;;5014108;28;20207;-60
2022/07/02 05:44:04;;;;;;;7.67;2.17;;;15.00;1.00;;;;;;5014326;28;20918;-59
2022/07/02 05:46:30;;;;;;;7.57;2.37;;;15.10;1.00;;;;;;5013950;28;20202;-59
2022/07/02 05:48:57;;;;;;;3.17;1.90;;;15.20;1.00;;;;;;5014606;28;20620;-61
2022/07/02 05:51:23;;;;;;;2.83;2.10;;;15.20;1.00;;;;;;5014261;28;20237;-60
2022/07/02 05:53:50;;;;;;;6.67;2.30;;;15.30;1.00;;;;;;5014246;28;20210;-60
2022/07/02 05:56:17;;;;;;;3.77;1.90;;;15.40;1.00;;;;;;5013845;28;20265;-57
2022/07/02 05:58:45;;;;;;;3.13;1.80;;;15.50;1.00;;;;;;5014268;28;20218;-60
2022/07/02 06:01:11;;;;;;;4.67;2.47;;;15.60;1.00;;;;;;5014454;28;20199;-58
2022/07/02 06:03:38;;;;;;;2.17;1.83;;;15.80;1.00;;;;;;5013932;28;20211;-59
2022/07/02 06:09:00;;;;;;;5.03;2.33;;;16.00;1.00;;;;;;4991686;28;20199;-62
2022/07/02 06:11:29;;;;;;;3.40;1.73;;;16.10;99.90;;;;;;5008520;28;20630;-62
2022/07/02 06:13:57;;;;;;;2.33;1.83;;;16.20;99.90;;;;;;5013863;28;20639;-62
2022/07/02 06:16:24;;;;;;;2.73;1.97;;;16.30;1.00;;;;;;5013248;28;20633;-58
2022/07/02 06:18:50;;;;;;;3.70;1.80;;;16.40;99.90;;;;;;5013645;28;20203;-60
2022/07/02 06:21:17;;;;;;;3.50;1.73;;;16.50;99.90;;;;;;5013665;28;20262;-59
2022/07/02 06:23:44;;;;;;;2.53;1.97;;;16.60;99.90;;;;;;5013266;28;20268;-58
2022/07/02 06:26:10;;;;;;;2.77;1.80;;;16.70;99.90;;;;;;5013218;28;20633;-62
2022/07/02 06:28:37;;;;;;;4.30;1.70;;;16.80;99.90;;;;;;5013164;28;20242;-56
2022/07/02 06:31:05;;;;;;;2.70;2.00;;;16.90;78.40;;;;;;5012725;28;20231;-56
2022/07/02 06:33:32;;;;;;;3.77;1.83;;;17.00;8.40;;;;;;5013582;28;20207;-56
2022/07/02 06:35:58;;;;;;;3.27;1.97;;;17.10;1.00;;;;;;5013097;28;20261;-61
2022/07/02 06:38:25;;;;;;;3.70;2.00;;;17.20;1.00;;;;;;5013562;28;20316;-57
2022/07/02 06:40:53;;;;;;;3.13;1.60;;;17.30;1.00;;;;;;5013285;28;20641;-58
2022/07/02 06:43:20;;;;;;;2.50;1.70;;;17.40;1.00;;;;;;5013351;28;20207;-57
2022/07/02 06:45:47;;;;;;;3.30;1.70;;;17.50;1.00;;;;;;5013161;28;20202;-62
2022/07/02 06:48:15;;;;;;;2.80;1.70;;;17.70;1.00;;;;;;5012740;28;20280;-58
2022/07/02 06:50:41;;;;;;;3.97;1.60;;;17.80;1.00;;;;;;5012713;28;20227;-58
2022/07/02 06:53:08;;;;;;;3.37;1.40;;;17.90;1.00;;;;;;5013066;28;20207;-57
2022/07/02 06:55:35;;;;;;;4.87;1.80;;;18.00;1.00;;;;;;5013024;28;20207;-61
2022/07/02 06:58:01;;;;;;;2.47;1.40;;;18.10;99.90;;;;;;5012757;28;20227;-60
2022/07/02 07:00:28;;;;;;;4.23;1.50;;;18.20;99.90;;;;;;5012888;28;20273;-62
2022/07/02 07:02:54;;;;;;;4.33;1.50;;;18.40;99.90;;;;;;5012903;28;20207;-59
2022/07/02 07:05:23;;;;;;;5.03;1.60;;;18.50;99.90;;;;;;5012735;28;20624;-63
2022/07/02 07:07:49;;;;;;;1.97;1.30;;;18.60;99.90;;;;;;5012507;28;20285;-63
2022/07/02 07:10:16;;;;;;;4.17;1.63;;;18.80;99.90;;;;;;5013064;28;20258;-63
2022/07/02 07:12:42;;;;;;;4.00;1.30;;;18.90;99.90;;;;;;5012650;28;20264;-62
2022/07/02 07:15:10;;;;;;;2.43;1.30;;;19.00;99.90;;;;;;5012883;28;20203;-63
2022/07/02 07:17:36;;;;;;;2.50;1.10;;;19.20;99.90;;;;;;5012302;28;20238;-63
2022/07/02 07:20:05;;;;;;;1.93;1.07;;;19.40;99.90;;;;;;5012503;28;20237;-61
2022/07/02 07:22:33;;;;;;;2.33;1.10;;;19.60;99.90;;;;;;5012684;28;20628;-63
2022/07/02 07:25:00;;;;;;;3.67;1.20;;;19.70;99.90;;;;;;5012641;28;20678;-62
2022/07/02 07:27:26;;;;;;;3.13;0.93;;;19.70;99.90;;;;;;5011633;28;20288;-63
2022/07/02 07:29:53;;;;;;;2.70;0.93;;;19.80;99.90;;;;;;5012530;28;20266;-62
2022/07/02 07:32:20;;;;;;;2.63;0.80;;;19.90;99.90;;;;;;5012297;28;20230;-62
2022/07/02 07:34:46;;;;;;;1.67;0.60;;;20.10;99.90;;;;;;5012488;28;20210;-63
2022/07/02 07:37:14;;;;;;;2.20;0.93;;;20.20;99.90;;;;;;5012280;28;20227;-63
2022/07/02 07:39:42;;;;;;;2.03;0.70;;;20.40;99.90;;;;;;5012203;28;20753;-62
2022/07/02 07:42:09;;;;;;;5.77;0.90;;;20.40;99.90;;;;;;5008204;28;20202;-63
2022/07/02 07:44:35;;;;;;;3.17;0.80;;;20.50;99.90;;;;;;5016038;28;20206;-61
2022/07/02 07:47:02;;;;;;;2.80;1.17;;;20.60;99.90;;;;;;5011383;28;20289;-60
2022/07/02 07:49:29;;;;;;;2.07;1.00;;;20.70;99.90;;;;;;5011826;28;20207;-63
2022/07/02 07:51:55;;;;;;;1.40;0.73;;;20.80;99.90;;;;;;5011988;28;20239;-60
2022/07/02 07:54:22;;;;;;;2.57;1.00;;;21.00;99.90;;;;;;5011570;28;20207;-62
2022/07/02 07:56:50;;;;;;;1.57;0.63;;;21.20;99.90;;;;;;5011327;28;20664;-63
2022/07/02 07:59:16;;;;;;;5.10;0.60;;;21.30;99.90;;;;;;5011663;28;20210;-62
2022/07/02 08:01:43;;;;;;;1.43;0.80;;;21.30;99.90;;;;;;5011462;28;20257;-62
2022/07/02 08:04:10;;;;;;;2.80;0.57;;;21.50;99.90;;;;;;5011674;28;20203;-62
2022/07/02 08:06:37;;;;;;;1.67;0.73;;;21.50;99.90;;;;;;5011012;28;20227;-63
2022/07/02 08:09:03;;;;;;;4.30;0.80;;;21.60;99.90;;;;;;5011590;28;20297;-62
2022/07/02 08:11:30;;;;;;;3.80;0.70;;;21.80;99.90;;;;;;5011437;28;20219;-60
2022/07/02 08:13:58;;;;;;;1.70;0.70;;;21.80;99.90;;;;;;5011293;28;20215;-61
2022/07/02 08:16:26;;;;;;;4.20;0.90;;;22.00;99.90;;;;;;5010959;28;20292;-62
2022/07/02 08:18:52;;;;;;;1.73;0.57;;;22.00;99.90;;;;;;5011493;28;20286;-62
2022/07/02 08:21:19;;;;;;;2.70;0.80;;;22.10;99.90;;;;;;5011426;28;20253;-62
2022/07/02 08:23:46;;;;;;;4.00;0.67;;;22.20;99.90;;;;;;5011038;28;20215;-64
2022/07/02 08:26:13;;;;;;;1.23;0.60;;;22.10;99.90;;;;;;4997458;28;20223;-64
2022/07/02 08:28:39;;;;;;;1.60;0.50;;;21.70;99.90;;;;;;4991257;28;20236;-65
2022/07/02 08:31:08;;;;;;;2.20;0.77;;;21.70;99.90;;;;;;4991928;28;20211;-65
2022/07/02 08:33:35;;;;;;;0.80;0.33;;;21.60;99.90;;;;;;4990306;28;20596;-65
2022/07/02 08:36:02;;;;;;;0.70;0.33;;;21.90;99.90;;;;;;4990220;28;20207;-66
2022/07/02 08:38:29;;;;;;;0.70;0.40;;;22.10;99.90;;;;;;4991624;28;20223;-65
2022/07/02 08:40:55;;;;;;;2.77;0.50;;;22.40;99.90;;;;;;4991723;28;20701;-66
2022/07/02 08:43:25;;;;;;;1.87;0.60;;;22.30;99.90;;;;;;4991314;28;20258;-65
2022/07/02 08:45:53;;;;;;;1.43;0.23;;;22.40;99.90;;;;;;4991135;28;20299;-64
2022/07/02 08:48:23;;;;;;;2.50;0.50;;;22.30;99.90;;;;;;4991494;28;20224;-64
2022/07/02 08:50:51;;;;;;;1.17;0.40;;;22.50;99.90;;;;;;4991638;28;20635;-64
2022/07/02 08:53:19;;;;;;;1.20;0.40;;;22.70;99.90;;;;;;4991329;28;20235;-64
2022/07/02 08:55:47;;;;;;;1.13;0.50;;;22.90;99.90;;;;;;4994729;28;20247;-64
2022/07/02 08:58:15;;;;;;;0.70;0.47;;;22.90;99.90;;;;;;4994961;28;20289;-65
2022/07/02 09:00:42;;;;;;;0.90;0.50;;;22.90;99.90;;;;;;4995007;28;20745;-64
2022/07/02 09:03:09;;;;;;;1.50;0.50;;;23.10;99.90;;;;;;4994862;28;20208;-63
2022/07/02 09:05:42;;;;;;;1.23;0.53;;;22.90;99.90;;;;;;4994929;28;20678;-61
2022/07/02 09:08:11;;;;;;;1.20;0.50;;;23.10;99.90;;;;;;4994506;28;20227;-60
2022/07/02 09:10:39;;;;;;;1.80;0.50;;;23.30;99.90;;;;;;4995251;28;20554;-63
2022/07/02 09:13:07;;;;;;;0.50;0.30;;;23.20;99.90;;;;;;4994726;28;20733;-69
2022/07/02 09:15:35;;;;;;;1.93;0.60;;;23.00;99.90;;;;;;4994447;28;20215;-67
2022/07/02 09:18:02;;;;;;;0.80;0.50;;;22.70;99.90;;;;;;4994283;28;20224;-67
2022/07/02 09:20:28;;;;;;;2.13;0.53;;;22.80;99.90;;;;;;4994584;28;20601;-68
2022/07/02 09:22:56;;;;;;;1.00;0.53;;;23.00;99.90;;;;;;4994470;28;20278;-68
2022/07/02 09:25:26;;;;;;;1.40;0.60;;;22.50;99.90;;;;;;4993757;28;20262;-67
2022/07/02 09:27:58;;;;;;;2.53;0.43;;;22.20;99.90;;;;;;4994119;28;20240;-69
2022/07/02 09:30:28;;;;;;;2.40;0.50;;;22.40;99.90;;;;;;4994830;28;20238;-67
2022/07/02 09:33:28;;;;;;;0.90;0.50;;;22.70;99.90;;;;;;4994567;28;20226;-66
2022/07/02 09:35:42;;;;;;;1.07;0.40;;;23.00;99.90;;;;;;4994027;28;20643;-67
2022/07/02 09:38:11;;;;;;;1.37;0.57;;;23.10;99.90;;;;;;4994117;28;20231;-69
2022/07/02 09:40:39;;;;;;;1.20;0.60;;;23.50;99.90;;;;;;4994294;28;20278;-68
2022/07/02 09:43:06;;;;;;;0.50;0.30;;;23.60;99.90;;;;;;4994899;28;20226;-67
2022/07/02 09:45:33;;;;;;;2.37;0.50;;;23.80;99.90;;;;;;4993724;28;20686;-64
2022/07/02 09:48:03;;;;;;;3.67;0.60;;;24.00;99.90;;;;;;4993823;28;20983;-67
2022/07/02 09:50:30;;;;;;;0.50;0.40;;;24.10;99.90;;;;;;4994027;28;20204;-67
2022/07/02 09:52:58;;;;;;;4.33;0.67;;;24.00;99.90;;;;;;4994167;28;20323;-66
2022/07/02 09:55:28;;;;;;;1.53;0.53;;;24.10;99.90;;;;;;4993900;28;20289;-63
2022/07/02 09:57:56;;;;;;;2.07;0.30;;;23.70;99.90;;;;;;4993690;28;20233;-63
2022/07/02 10:00:25;;;;;;;6.37;0.63;;;23.60;99.90;;;;;;4993960;28;20227;-61
2022/07/02 10:02:53;;;;;;;2.10;0.57;;;23.40;99.90;;;;;;4994211;28;20212;-63
2022/07/02 10:05:25;;;;;;;1.77;0.60;;;23.40;99.90;;;;;;4992806;28;20270;-65
2022/07/02 10:07:53;;;;;;;1.73;0.60;;;23.60;99.90;;;;;;4993487;28;20780;-63
2022/07/02 10:10:26;;;;;;;2.30;0.50;;;23.60;99.90;;;;;;4993994;28;20208;-63
2022/07/02 10:12:56;;;;;;;0.80;0.50;;;23.50;99.90;;;;;;4993557;28;20227;-62
2022/07/02 10:15:25;;;;;;;1.70;0.70;;;23.70;99.90;;;;;;4993975;28;20218;-60
2022/07/02 10:17:54;;;;;;;0.60;0.47;;;23.60;99.90;;;;;;4993454;28;20234;-65
2022/07/02 10:20:22;;;;;;;3.50;0.50;;;23.80;99.90;;;;;;4994033;28;20634;-61
2022/07/02 10:22:48;;;;;;;2.33;0.60;;;23.90;99.90;;;;;;4993815;28;20266;-65
2022/07/02 10:25:17;;;;;;;2.07;0.90;;;23.90;99.90;;;;;;4993699;28;20211;-66
2022/07/02 10:27:46;;;;;;;1.07;0.40;;;23.80;99.90;;;;;;4993634;28;20241;-65
2022/07/02 10:30:15;;;;;;;4.27;0.40;;;23.70;99.90;;;;;;4994182;28;20218;-64
2022/07/02 10:32:49;;;;;;;1.00;0.60;;;23.20;99.90;;;;;;4994310;28;20306;-66
2022/07/02 10:35:16;;;;;;;2.97;0.63;;;23.50;99.90;;;;;;4993103;28;20219;-66
2022/07/02 10:37:45;;;;;;;4.07;0.40;;;23.80;99.90;;;;;;4992933;28;20286;-65
2022/07/02 10:40:17;;;;;;;1.20;0.40;;;23.90;99.90;;;;;;4993382;28;20754;-65
2022/07/02 10:42:48;;;;;;;0.80;0.40;;;24.10;99.90;;;;;;4993371;28;20200;-65
2022/07/02 10:45:18;;;;;;;2.87;0.70;;;24.10;99.90;;;;;;4992872;28;20208;-64
2022/07/02 10:48:26;;;;;;;1.43;0.57;;;24.00;99.90;;;;;;4993199;28;20282;-64
2022/07/02 10:50:57;;;;;;;1.50;0.50;;;23.90;99.90;;;;;;4947199;28;20211;-64
2022/07/02 10:53:27;;;;;;;1.20;0.60;;;24.00;99.90;;;;;;4993067;28;20231;-64
2022/07/02 10:56:02;;;;;;;2.50;0.57;;;24.20;99.90;;;;;;4992764;28;20212;-64
2022/07/02 10:58:30;;;;;;;1.73;0.53;;;24.20;99.90;;;;;;4992851;28;20254;-64
2022/07/02 11:01:09;;;;;;;0.97;0.63;;;24.20;99.90;;;;;;4993292;28;20219;-65
2022/07/02 11:03:36;;;;;;;3.40;0.60;;;24.00;99.90;;;;;;4992726;28;20208;-66
2022/07/02 11:06:04;;;;;;;2.43;0.70;;;24.00;99.90;;;;;;4992795;28;20211;-66
2022/07/02 11:08:49;;;;;;;0.90;0.70;;;24.20;99.90;;;;;;4992616;28;20719;-61
2022/07/02 11:11:19;;;;;;;1.83;0.47;;;24.20;99.90;;;;;;4992636;28;20219;-62
2022/07/02 11:13:49;;;;;;;0.97;0.40;;;24.30;99.90;;;;;;4992782;28;20227;-62
2022/07/02 11:16:23;;;;;;;0.50;0.37;;;24.40;99.90;;;;;;4992384;28;20207;-63
2022/07/02 11:18:50;;;;;;;0.87;0.40;;;24.60;99.90;;;;;;4992536;28;20206;-63
2022/07/02 11:21:18;;;;;;;1.80;0.40;;;24.80;99.90;;;;;;4992695;28;20782;-63
2022/07/02 11:23:45;;;;;;;0.83;0.43;;;24.90;99.90;;;;;;4992077;28;20211;-63
2022/07/02 11:26:16;;;;;;;2.87;0.70;;;25.10;99.90;;;;;;4992458;28;20211;-63
2022/07/02 11:28:44;;;;;;;1.23;0.67;;;25.10;99.90;;;;;;4992339;28;20298;-61
2022/07/02 11:31:11;;;;;;;2.27;1.00;;;25.00;99.90;;;;;;4992442;28;20246;-61
2022/07/02 11:33:43;;;;;;;2.93;0.47;;;25.00;99.90;;;;;;4991820;28;20309;-62
2022/07/02 11:36:10;;;;;;;2.00;0.50;;;24.90;99.90;;;;;;4991722;28;20298;-62
2022/07/02 11:38:38;;;;;;;0.80;0.40;;;24.50;99.90;;;;;;4992610;28;20231;-62
2022/07/02 11:41:16;;;;;;;0.57;0.40;;;24.80;99.90;;;;;;4992638;28;20265;-63
2022/07/02 11:43:44;;;;;;;4.43;0.50;;;25.00;99.90;;;;;;4992422;28;20211;-63
2022/07/02 11:46:12;;;;;;;1.60;0.40;;;25.00;99.90;;;;;;4991493;28;20217;-62
2022/07/02 11:48:41;;;;;;;2.47;0.70;;;25.40;99.90;;;;;;4991909;28;20318;-62
2022/07/02 11:51:07;;;;;;;2.87;0.50;;;25.60;99.90;;;;;;4991983;28;20214;-62
2022/07/02 11:53:34;;;;;;;2.13;0.40;;;25.70;99.90;;;;;;4991866;28;20231;-62
2022/07/02 11:56:09;;;;;;;2.20;0.50;;;25.30;99.90;;;;;;4991896;28;20242;-63
2022/07/02 11:58:42;;;;;;;1.10;0.40;;;25.30;99.90;;;;;;4991710;28;20597;-61
2022/07/02 12:01:24;;;;;;;3.10;0.67;;;25.30;99.90;;;;;;4992049;28;20221;-63
2022/07/02 12:03:54;;;;;;;1.13;0.40;;;25.50;99.90;;;;;;4991513;28;20203;-63
2022/07/02 12:06:22;;;;;;;1.80;0.43;;;25.50;99.90;;;;;;4990700;28;20304;-63
2022/07/02 12:08:52;;;;;;;1.00;0.50;;;25.50;99.90;;;;;;4991618;28;20215;-63
2022/07/02 12:11:21;;;;;;;1.00;0.37;;;25.20;99.90;;;;;;4991898;28;20235;-62
2022/07/02 12:13:48;;;;;;;0.90;0.60;;;24.60;99.90;;;;;;4991187;28;20231;-62
2022/07/02 12:16:16;;;;;;;0.77;0.50;;;24.60;99.90;;;;;;4991598;28;20208;-67
2022/07/02 12:18:44;;;;;;;1.70;0.60;;;24.80;99.90;;;;;;4991826;28;20266;-66
2022/07/02 12:21:14;;;;;;;2.50;0.50;;;25.20;99.90;;;;;;4991847;28;20212;-63
2022/07/02 12:23:46;;;;;;;1.07;0.40;;;25.50;99.90;;;;;;4991783;28;20227;-63
2022/07/02 12:26:22;;;;;;;1.53;0.50;;;25.70;99.90;;;;;;4991199;28;20217;-62
2022/07/02 12:31:49;;;;;;;3.00;0.50;;;25.30;99.90;;;;;;4995501;28;20215;-63
2022/07/02 12:34:17;;;;;;;1.10;0.40;;;25.30;99.90;;;;;;4995745;28;20227;-61
2022/07/02 12:36:52;;;;;;;1.60;0.50;;;25.50;99.90;;;;;;4995060;28;20239;-66
2022/07/02 12:39:19;;;;;;;1.77;0.60;;;25.50;99.90;;;;;;4995840;28;20211;-68
2022/07/02 12:41:46;;;;;;;0.93;0.40;;;25.70;99.90;;;;;;4994636;28;20212;-69
2022/07/02 12:44:21;;;;;;;3.53;0.60;;;25.70;99.90;;;;;;4995469;28;20210;-62
2022/07/02 12:46:50;;;;;;;1.07;0.50;;;25.80;99.90;;;;;;4994874;28;20228;-67
2022/07/02 12:49:19;;;;;;;1.57;0.70;;;26.00;99.90;;;;;;4995721;28;20582;-66
2022/07/02 12:51:55;;;;;;;2.30;0.60;;;26.00;99.90;;;;;;4995386;28;20218;-66
2022/07/02 12:54:33;;;;;;;2.87;0.60;;;25.80;99.90;;;;;;4995260;28;20334;-66
2022/07/02 12:57:04;;;;;;;3.53;0.73;;;25.40;99.90;;;;;;4995258;28;20227;-66
2022/07/02 12:59:31;;;;;;;0.97;0.50;;;25.20;99.90;;;;;;4994981;28;20208;-64
2022/07/02 13:01:58;;;;;;;2.63;1.13;;;25.10;99.90;;;;;;4995494;28;20230;-64